Mckinley Sea — WDE5024 — position and weather

sailwx.info

Track history (hours):
 
Tides and Currents Weather Stations Pressure Air Temp Water Temp Dewpoint Dewpoint Depression Visibility Wind Speed Wind Dir Waves Ship Positions

Mckinley Sea

Owner: Kirby Offshore Marine, LLC, Staten Island, NY. More information available from US FCC via Universal Licensing System and Coast Guard Vessel Documentation Center.

Last reported at 2014-Nov-21 17:30 UTC. Time now 2014-Nov-21 18:03 UTC.
Position N 40°36' W 074°12'.

Length 46 m; draft 7 m.

Type: Towing. MMSI: 367360980.

Date/timePositionNaut miles runAvg speedWind from/ knotsBaromVisibWave heightAir tempDewpointWater temp
2014-Nov-21 17:30N 40°36' W 074°12'2 2.3
2014-Nov-21 16:28N 40°38' W 074°12'1 0.6
2014-Nov-21 14:15N 40°38' W 074°10'0 0.5
2014-Nov-21 13:31N 40°39' W 074°10'3 3.1
2014-Nov-21 12:32N 40°36' W 074°12'0 0.0
2014-Nov-21 06:28N 40°36' W 074°12'0 0.0
2014-Nov-21 04:17N 40°36' W 074°12'0 0.0
2014-Nov-21 03:27N 40°36' W 074°12'0 0.0
2014-Nov-21 02:21N 40°36' W 074°12'3 3.7
2014-Nov-21 01:33N 40°39' W 074°11'1 0.4
2014-Nov-21 00:10N 40°38' W 074°10'3 4.8
2014-Nov-20 23:32N 40°36' W 074°12'3 1.5
2014-Nov-20 21:33N 40°39' W 074°10'0 0.0
2014-Nov-20 11:15N 40°39' W 074°10'0 0.1
2014-Nov-20 10:33N 40°39' W 074°10'6 5.7
2014-Nov-20 09:33N 40°40' W 074°03'6 6.4
2014-Nov-20 08:33N 40°45' W 073°58'27 6.4
2014-Nov-20 04:25N 40°59' W 073°27'6 7.4
2014-Nov-20 03:33N 41°01' W 073°19'7 7.4
2014-Nov-20 02:32N 41°02' W 073°09'8 7.7
2014-Nov-20 01:33N 41°03' W 072°60'8 8.1
2014-Nov-20 00:33N 41°05' W 072°49'8 8.5
2014-Nov-19 23:33N 41°07' W 072°38'9 8.9
2014-Nov-19 22:33N 41°10' W 072°27'1010.2
2014-Nov-19 21:33N 41°13' W 072°14'9 9.4
2014-Nov-19 20:33N 41°14' W 072°02'9 9.1
2014-Nov-19 19:33N 41°16' W 071°50'9 9.0
2014-Nov-19 18:33N 41°18' W 071°38'8 8.4
2014-Nov-19 17:33N 41°19' W 071°27'9 9.3
2014-Nov-19 16:33N 41°28' W 071°22'10 9.4
2014-Nov-19 15:33N 41°37' W 071°18'9 9.3
2014-Nov-19 14:33N 41°45' W 071°22'2 1.8
2014-Nov-19 13:33N 41°47' W 071°22'0 0.0
2014-Nov-19 12:18N 41°47' W 071°22'0 0.0
2014-Nov-19 11:33N 41°47' W 071°22'0 0.0
2014-Nov-19 09:33N 41°47' W 071°22'0 0.0
2014-Nov-19 08:32N 41°47' W 071°22'0 0.0
2014-Nov-19 07:32N 41°47' W 071°22'0 0.0
2014-Nov-19 06:29N 41°47' W 071°22'0 0.0
2014-Nov-19 05:33N 41°47' W 071°22'0 0.0
2014-Nov-19 04:27N 41°47' W 071°22'0 0.0
2014-Nov-19 03:33N 41°47' W 071°22'0 0.0
2014-Nov-19 02:31N 41°47' W 071°22'0 0.0
2014-Nov-19 01:29N 41°47' W 071°22'0 0.0
2014-Nov-19 00:33N 41°47' W 071°22'0 0.0
2014-Nov-18 23:33N 41°47' W 071°22'0 0.0
2014-Nov-18 22:33N 41°47' W 071°22'0 0.0
2014-Nov-18 20:19N 41°47' W 071°22'0 0.0
2014-Nov-18 18:24N 41°47' W 071°22'0 0.0
2014-Nov-18 17:33N 41°47' W 071°22'0 0.0
2014-Nov-18 16:30N 41°47' W 071°22'0 0.0
2014-Nov-18 15:33N 41°47' W 071°22'0 0.0
2014-Nov-18 14:18N 41°47' W 071°22'0 0.0
2014-Nov-18 13:32N 41°47' W 071°22'0 0.0
2014-Nov-18 12:33N 41°47' W 071°22'4 4.0
2014-Nov-18 11:33N 41°43' W 071°21'6 5.8
2014-Nov-18 10:33N 41°38' W 071°18'7 6.6
2014-Nov-18 09:33N 41°31' W 071°20'7 7.2
2014-Nov-18 08:33N 41°25' W 071°24'7 7.2
2014-Nov-18 07:33N 41°18' W 071°28'7 7.3
2014-Nov-18 06:33N 41°17' W 071°38'8 8.0
2014-Nov-18 05:33N 41°16' W 071°48'9 9.0
2014-Nov-18 04:33N 41°14' W 072°00'10 9.8
2014-Nov-18 03:33N 41°13' W 072°13'10 9.8
2014-Nov-18 02:33N 41°10' W 072°26'9 8.8
2014-Nov-18 01:33N 41°08' W 072°37'8 8.3
2014-Nov-18 00:33N 41°06' W 072°48'52 7.3
2014-Nov-17 17:23N 40°48' W 073°52'4 4.6
2014-Nov-17 16:33N 40°46' W 073°57'4 4.5
2014-Nov-17 15:33N 40°42' W 073°60'3 3.0
2014-Nov-17 14:33N 40°40' W 074°03'3 2.9
2014-Nov-17 13:33N 40°39' W 074°06'5 4.8
2014-Nov-17 12:33N 40°38' W 074°12'2 1.6
2014-Nov-17 11:33N 40°36' W 074°12'0 0.0
2014-Nov-17 05:32N 40°36' W 074°12'0 0.3
2014-Nov-17 04:31N 40°36' W 074°12'0 0.3
2014-Nov-17 03:26N 40°36' W 074°12'0 0.0
2014-Nov-17 02:29N 40°36' W 074°12'0 0.0
2014-Nov-17 01:18N 40°36' W 074°12'0 0.0
2014-Nov-17 00:29N 40°36' W 074°12'0 0.0
2014-Nov-16 23:13N 40°36' W 074°12'3 2.9
2014-Nov-16 22:20N 40°38' W 074°12'1 1.6
2014-Nov-16 21:27N 40°38' W 074°10'0 0.0
2014-Nov-16 20:28N 40°38' W 074°10'0 0.0
2014-Nov-16 19:29N 40°38' W 074°10'0 0.0
2014-Nov-16 18:23N 40°38' W 074°10'0 0.0
2014-Nov-16 17:32N 40°38' W 074°10'2 1.7
2014-Nov-16 16:16N 40°37' W 074°12'2 2.7
2014-Nov-16 15:27N 40°39' W 074°10'2 2.8
2014-Nov-16 14:33N 40°39' W 074°07'0 0.0
2014-Nov-16 13:33N 40°39' W 074°07'0 0.0
2014-Nov-16 12:33N 40°39' W 074°07'0 0.0
2014-Nov-16 11:33N 40°39' W 074°07'5 2.5
2014-Nov-16 09:26N 40°36' W 074°12'0 0.0
2014-Nov-16 08:06N 40°36' W 074°12'0 0.0
2014-Nov-16 07:33N 40°36' W 074°12'0 0.0
2014-Nov-16 06:33N 40°36' W 074°12'0 0.0
2014-Nov-16 05:32N 40°36' W 074°12'2 1.9
2014-Nov-16 04:20N 40°38' W 074°12'2 2.0
2014-Nov-16 03:33N 40°39' W 074°10'0 0.0
2014-Nov-16 02:33N 40°39' W 074°10'0 0.0
2014-Nov-16 01:33N 40°39' W 074°10'0 0.0
2014-Nov-16 00:33N 40°39' W 074°10'0 0.1
2014-Nov-15 23:33N 40°39' W 074°10'3 2.5
2014-Nov-15 22:23N 40°36' W 074°12'0 0.1
2014-Nov-15 20:32N 40°36' W 074°12'1 0.6
2014-Nov-15 19:05N 40°35' W 074°12'4 3.8
2014-Nov-15 18:04N 40°32' W 074°15'4 5.1
2014-Nov-15 17:22N 40°30' W 074°11'1 0.7
2014-Nov-15 15:24N 40°30' W 074°09'0 0.0
2014-Nov-15 13:25N 40°30' W 074°09'0 0.0
2014-Nov-15 12:20N 40°30' W 074°09'1 0.7
2014-Nov-15 10:33N 40°30' W 074°07'6 6.4
2014-Nov-15 09:33N 40°35' W 074°02'8 8.2
2014-Nov-15 08:33N 40°43' W 073°59'7 6.9
2014-Nov-15 07:33N 40°48' W 073°54'25 8.3
2014-Nov-15 04:33N 41°00' W 073°25'9 8.8
2014-Nov-15 03:33N 41°01' W 073°14'7 6.6
2014-Nov-15 02:33N 41°00' W 073°22'11 8.6
2014-Nov-15 01:18N 41°02' W 073°08'6 8.5
2014-Nov-15 00:33N 41°03' W 072°60'9 8.8
2014-Nov-14 23:33N 41°05' W 072°48'9 8.8
2014-Nov-14 22:33N 41°08' W 072°37'9 9.1
2014-Nov-14 21:33N 41°10' W 072°26'10 9.6
2014-Nov-14 20:33N 41°13' W 072°13'10 9.7
2014-Nov-14 19:33N 41°14' W 072°01'1010.0
2014-Nov-14 18:33N 41°16' W 071°48'10 9.6
2014-Nov-14 17:33N 41°18' W 071°35'8 7.7
2014-Nov-14 16:33N 41°22' W 071°26'9 9.1
2014-Nov-14 15:33N 41°30' W 071°21'9 9.0
2014-Nov-14 14:32N 41°39' W 071°19'9 1.2
2014-Nov-14 07:08N 41°47' W 071°22'0 0.0
2014-Nov-14 06:33N 41°47' W 071°22'0 0.0
2014-Nov-14 05:33N 41°47' W 071°22'0 0.0
2014-Nov-14 04:33N 41°47' W 071°22'0 0.0
2014-Nov-14 03:33N 41°47' W 071°22'0 0.0
2014-Nov-14 01:26N 41°47' W 071°22'1 1.1
2014-Nov-14 00:33N 41°46' W 071°23'8 8.2
2014-Nov-13 23:33N 41°38' W 071°18'8 8.4
2014-Nov-13 22:33N 41°30' W 071°21'8 8.3
2014-Nov-13 21:33N 41°23' W 071°26'7 7.5
2014-Nov-13 20:33N 41°18' W 071°33'8 8.4
2014-Nov-13 19:33N 41°16' W 071°44'8 8.1
2014-Nov-13 18:33N 41°15' W 071°55'7 7.4
2014-Nov-13 17:33N 41°14' W 072°04'8 7.8
2014-Nov-13 16:33N 41°13' W 072°15'8 8.0
2014-Nov-13 15:33N 41°11' W 072°25'9 8.6
2014-Nov-13 14:33N 41°09' W 072°36'9 8.9
2014-Nov-13 13:33N 41°06' W 072°47'19 9.1
2014-Nov-13 11:30N 41°01' W 073°11'9 9.1
2014-Nov-13 10:33N 41°01' W 073°23'18 8.6
2014-Nov-13 08:29N 40°53' W 073°44'8 7.2
2014-Nov-13 07:22N 40°48' W 073°52'6 7.0
2014-Nov-13 06:33N 40°44' W 073°58'7 7.3
2014-Nov-13 05:33N 40°38' W 074°03'1 0.6
2014-Nov-13 04:33N 40°38' W 074°04'1 0.7
2014-Nov-13 03:33N 40°38' W 074°04'5 4.7
2014-Nov-13 02:33N 40°39' W 074°10'3 3.0
2014-Nov-13 01:32N 40°36' W 074°12'0 0.0
2014-Nov-13 00:21N 40°36' W 074°12'0 0.4
2014-Nov-12 23:32N 40°36' W 074°12'2 2.2
2014-Nov-12 22:28N 40°38' W 074°12'2 1.8
2014-Nov-12 21:33N 40°39' W 074°10'0 0.0
2014-Nov-12 20:33N 40°39' W 074°10'0 0.0
2014-Nov-12 19:33N 40°39' W 074°10'0 0.0
2014-Nov-12 18:33N 40°39' W 074°10'0 0.1
2014-Nov-12 17:32N 40°38' W 074°10'2 2.3
2014-Nov-12 16:33N 40°37' W 074°12'2 2.2
2014-Nov-12 15:33N 40°39' W 074°10'0 0.0
2014-Nov-12 14:33N 40°39' W 074°10'0 0.0
2014-Nov-12 13:33N 40°39' W 074°10'0 0.0
2014-Nov-12 12:33N 40°39' W 074°10'0 0.0
2014-Nov-12 11:33N 40°39' W 074°10'3 3.0
2014-Nov-12 10:33N 40°36' W 074°12'0 0.3
2014-Nov-12 09:33N 40°36' W 074°12'0 0.0
2014-Nov-12 08:33N 40°36' W 074°12'0 0.0
2014-Nov-12 07:33N 40°36' W 074°12'0 0.0
2014-Nov-12 06:33N 40°36' W 074°12'0 0.0
2014-Nov-12 05:32N 40°36' W 074°12'0 0.3
2014-Nov-12 04:31N 40°36' W 074°12'0 0.3
2014-Nov-12 03:33N 40°36' W 074°12'0 0.0
2014-Nov-12 02:33N 40°36' W 074°12'0 0.3
2014-Nov-12 01:33N 40°36' W 074°12'6 5.8
2014-Nov-12 00:33N 40°31' W 074°15'5 4.7
2014-Nov-11 23:33N 40°30' W 074°09'0 0.1
2014-Nov-11 22:31N 40°30' W 074°09'0 0.0
2014-Nov-11 21:33N 40°30' W 074°09'0 0.0
2014-Nov-11 20:33N 40°30' W 074°09'0 0.1
2014-Nov-11 19:33N 40°30' W 074°09'  
Track history (hours):
 
Tides and Currents Weather Stations Pressure Air Temp Water Temp Dewpoint Dewpoint Depression Visibility Wind Speed Wind Dir Waves Ship Positions

Mckinley Sea

Owner: Kirby Offshore Marine, LLC, Staten Island, NY. More information available from US FCC via Universal Licensing System and Coast Guard Vessel Documentation Center.

Last reported at 2014-Nov-21 17:30 UTC. Time now 2014-Nov-21 18:03 UTC.
Position N 40°36' W 074°12'.

Length 46 m; draft 7 m.

Type: Towing. MMSI: 367360980.

Date/timePositionNaut miles runAvg speedWind from/ knotsBaromVisibWave heightAir tempDewpointWater temp
2014-Nov-21 17:30N 40°36' W 074°12'2 2.3
2014-Nov-21 16:28N 40°38' W 074°12'1 0.6
2014-Nov-21 14:15N 40°38' W 074°10'0 0.5
2014-Nov-21 13:31N 40°39' W 074°10'3 3.1
2014-Nov-21 12:32N 40°36' W 074°12'0 0.0
2014-Nov-21 06:28N 40°36' W 074°12'0 0.0
2014-Nov-21 04:17N 40°36' W 074°12'0 0.0
2014-Nov-21 03:27N 40°36' W 074°12'0 0.0
2014-Nov-21 02:21N 40°36' W 074°12'3 3.7
2014-Nov-21 01:33N 40°39' W 074°11'1 0.4
2014-Nov-21 00:10N 40°38' W 074°10'3 4.8
2014-Nov-20 23:32N 40°36' W 074°12'3 1.5
2014-Nov-20 21:33N 40°39' W 074°10'0 0.0
2014-Nov-20 11:15N 40°39' W 074°10'0 0.1
2014-Nov-20 10:33N 40°39' W 074°10'6 5.7
2014-Nov-20 09:33N 40°40' W 074°03'6 6.4
2014-Nov-20 08:33N 40°45' W 073°58'27 6.4
2014-Nov-20 04:25N 40°59' W 073°27'6 7.4
2014-Nov-20 03:33N 41°01' W 073°19'7 7.4
2014-Nov-20 02:32N 41°02' W 073°09'8 7.7
2014-Nov-20 01:33N 41°03' W 072°60'8 8.1
2014-Nov-20 00:33N 41°05' W 072°49'8 8.5
2014-Nov-19 23:33N 41°07' W 072°38'9 8.9
2014-Nov-19 22:33N 41°10' W 072°27'1010.2
2014-Nov-19 21:33N 41°13' W 072°14'9 9.4
2014-Nov-19 20:33N 41°14' W 072°02'9 9.1
2014-Nov-19 19:33N 41°16' W 071°50'9 9.0
2014-Nov-19 18:33N 41°18' W 071°38'8 8.4
2014-Nov-19 17:33N 41°19' W 071°27'9 9.3
2014-Nov-19 16:33N 41°28' W 071°22'10 9.4
2014-Nov-19 15:33N 41°37' W 071°18'9 9.3
2014-Nov-19 14:33N 41°45' W 071°22'2 1.8
2014-Nov-19 13:33N 41°47' W 071°22'0 0.0
2014-Nov-19 12:18N 41°47' W 071°22'0 0.0
2014-Nov-19 11:33N 41°47' W 071°22'0 0.0
2014-Nov-19 09:33N 41°47' W 071°22'0 0.0
2014-Nov-19 08:32N 41°47' W 071°22'0 0.0
2014-Nov-19 07:32N 41°47' W 071°22'0 0.0
2014-Nov-19 06:29N 41°47' W 071°22'0 0.0
2014-Nov-19 05:33N 41°47' W 071°22'0 0.0
2014-Nov-19 04:27N 41°47' W 071°22'0 0.0
2014-Nov-19 03:33N 41°47' W 071°22'0 0.0
2014-Nov-19 02:31N 41°47' W 071°22'0 0.0
2014-Nov-19 01:29N 41°47' W 071°22'0 0.0
2014-Nov-19 00:33N 41°47' W 071°22'0 0.0
2014-Nov-18 23:33N 41°47' W 071°22'0 0.0
2014-Nov-18 22:33N 41°47' W 071°22'0 0.0
2014-Nov-18 20:19N 41°47' W 071°22'0 0.0
2014-Nov-18 18:24N 41°47' W 071°22'0 0.0
2014-Nov-18 17:33N 41°47' W 071°22'0 0.0
2014-Nov-18 16:30N 41°47' W 071°22'0 0.0
2014-Nov-18 15:33N 41°47' W 071°22'0 0.0
2014-Nov-18 14:18N 41°47' W 071°22'0 0.0
2014-Nov-18 13:32N 41°47' W 071°22'0 0.0
2014-Nov-18 12:33N 41°47' W 071°22'4 4.0
2014-Nov-18 11:33N 41°43' W 071°21'6 5.8
2014-Nov-18 10:33N 41°38' W 071°18'7 6.6
2014-Nov-18 09:33N 41°31' W 071°20'7 7.2
2014-Nov-18 08:33N 41°25' W 071°24'7 7.2
2014-Nov-18 07:33N 41°18' W 071°28'7 7.3
2014-Nov-18 06:33N 41°17' W 071°38'8 8.0
2014-Nov-18 05:33N 41°16' W 071°48'9 9.0
2014-Nov-18 04:33N 41°14' W 072°00'10 9.8
2014-Nov-18 03:33N 41°13' W 072°13'10 9.8
2014-Nov-18 02:33N 41°10' W 072°26'9 8.8
2014-Nov-18 01:33N 41°08' W 072°37'8 8.3
2014-Nov-18 00:33N 41°06' W 072°48'52 7.3
2014-Nov-17 17:23N 40°48' W 073°52'4 4.6
2014-Nov-17 16:33N 40°46' W 073°57'4 4.5
2014-Nov-17 15:33N 40°42' W 073°60'3 3.0
2014-Nov-17 14:33N 40°40' W 074°03'3 2.9
2014-Nov-17 13:33N 40°39' W 074°06'5 4.8
2014-Nov-17 12:33N 40°38' W 074°12'2 1.6
2014-Nov-17 11:33N 40°36' W 074°12'0 0.0
2014-Nov-17 05:32N 40°36' W 074°12'0 0.3
2014-Nov-17 04:31N 40°36' W 074°12'0 0.3
2014-Nov-17 03:26N 40°36' W 074°12'0 0.0
2014-Nov-17 02:29N 40°36' W 074°12'0 0.0
2014-Nov-17 01:18N 40°36' W 074°12'0 0.0
2014-Nov-17 00:29N 40°36' W 074°12'0 0.0
2014-Nov-16 23:13N 40°36' W 074°12'3 2.9
2014-Nov-16 22:20N 40°38' W 074°12'1 1.6
2014-Nov-16 21:27N 40°38' W 074°10'0 0.0
2014-Nov-16 20:28N 40°38' W 074°10'0 0.0
2014-Nov-16 19:29N 40°38' W 074°10'0 0.0
2014-Nov-16 18:23N 40°38' W 074°10'0 0.0
2014-Nov-16 17:32N 40°38' W 074°10'2 1.7
2014-Nov-16 16:16N 40°37' W 074°12'2 2.7
2014-Nov-16 15:27N 40°39' W 074°10'2 2.8
2014-Nov-16 14:33N 40°39' W 074°07'0 0.0
2014-Nov-16 13:33N 40°39' W 074°07'0 0.0
2014-Nov-16 12:33N 40°39' W 074°07'0 0.0
2014-Nov-16 11:33N 40°39' W 074°07'5 2.5
2014-Nov-16 09:26N 40°36' W 074°12'0 0.0
2014-Nov-16 08:06N 40°36' W 074°12'0 0.0
2014-Nov-16 07:33N 40°36' W 074°12'0 0.0
2014-Nov-16 06:33N 40°36' W 074°12'0 0.0
2014-Nov-16 05:32N 40°36' W 074°12'2 1.9
2014-Nov-16 04:20N 40°38' W 074°12'2 2.0
2014-Nov-16 03:33N 40°39' W 074°10'0 0.0
2014-Nov-16 02:33N 40°39' W 074°10'0 0.0
2014-Nov-16 01:33N 40°39' W 074°10'0 0.0
2014-Nov-16 00:33N 40°39' W 074°10'0 0.1
2014-Nov-15 23:33N 40°39' W 074°10'3 2.5
2014-Nov-15 22:23N 40°36' W 074°12'0 0.1
2014-Nov-15 20:32N 40°36' W 074°12'1 0.6
2014-Nov-15 19:05N 40°35' W 074°12'4 3.8
2014-Nov-15 18:04N 40°32' W 074°15'4 5.1
2014-Nov-15 17:22N 40°30' W 074°11'1 0.7
2014-Nov-15 15:24N 40°30' W 074°09'0 0.0
2014-Nov-15 13:25N 40°30' W 074°09'0 0.0
2014-Nov-15 12:20N 40°30' W 074°09'1 0.7
2014-Nov-15 10:33N 40°30' W 074°07'6 6.4
2014-Nov-15 09:33N 40°35' W 074°02'8 8.2
2014-Nov-15 08:33N 40°43' W 073°59'7 6.9
2014-Nov-15 07:33N 40°48' W 073°54'25 8.3
2014-Nov-15 04:33N 41°00' W 073°25'9 8.8
2014-Nov-15 03:33N 41°01' W 073°14'7 6.6
2014-Nov-15 02:33N 41°00' W 073°22'11 8.6
2014-Nov-15 01:18N 41°02' W 073°08'6 8.5
2014-Nov-15 00:33N 41°03' W 072°60'9 8.8
2014-Nov-14 23:33N 41°05' W 072°48'9 8.8
2014-Nov-14 22:33N 41°08' W 072°37'9 9.1
2014-Nov-14 21:33N 41°10' W 072°26'10 9.6
2014-Nov-14 20:33N 41°13' W 072°13'10 9.7
2014-Nov-14 19:33N 41°14' W 072°01'1010.0
2014-Nov-14 18:33N 41°16' W 071°48'10 9.6
2014-Nov-14 17:33N 41°18' W 071°35'8 7.7
2014-Nov-14 16:33N 41°22' W 071°26'9 9.1
2014-Nov-14 15:33N 41°30' W 071°21'9 9.0
2014-Nov-14 14:32N 41°39' W 071°19'9 1.2
2014-Nov-14 07:08N 41°47' W 071°22'0 0.0
2014-Nov-14 06:33N 41°47' W 071°22'0 0.0
2014-Nov-14 05:33N 41°47' W 071°22'0 0.0
2014-Nov-14 04:33N 41°47' W 071°22'0 0.0
2014-Nov-14 03:33N 41°47' W 071°22'0 0.0
2014-Nov-14 01:26N 41°47' W 071°22'1 1.1
2014-Nov-14 00:33N 41°46' W 071°23'8 8.2
2014-Nov-13 23:33N 41°38' W 071°18'8 8.4
2014-Nov-13 22:33N 41°30' W 071°21'8 8.3
2014-Nov-13 21:33N 41°23' W 071°26'7 7.5
2014-Nov-13 20:33N 41°18' W 071°33'8 8.4
2014-Nov-13 19:33N 41°16' W 071°44'8 8.1
2014-Nov-13 18:33N 41°15' W 071°55'7 7.4
2014-Nov-13 17:33N 41°14' W 072°04'8 7.8
2014-Nov-13 16:33N 41°13' W 072°15'8 8.0
2014-Nov-13 15:33N 41°11' W 072°25'9 8.6
2014-Nov-13 14:33N 41°09' W 072°36'9 8.9
2014-Nov-13 13:33N 41°06' W 072°47'19 9.1
2014-Nov-13 11:30N 41°01' W 073°11'9 9.1
2014-Nov-13 10:33N 41°01' W 073°23'18 8.6
2014-Nov-13 08:29N 40°53' W 073°44'8 7.2
2014-Nov-13 07:22N 40°48' W 073°52'6 7.0
2014-Nov-13 06:33N 40°44' W 073°58'7 7.3
2014-Nov-13 05:33N 40°38' W 074°03'1 0.6
2014-Nov-13 04:33N 40°38' W 074°04'1 0.7
2014-Nov-13 03:33N 40°38' W 074°04'5 4.7
2014-Nov-13 02:33N 40°39' W 074°10'3 3.0
2014-Nov-13 01:32N 40°36' W 074°12'0 0.0
2014-Nov-13 00:21N 40°36' W 074°12'0 0.4
2014-Nov-12 23:32N 40°36' W 074°12'2 2.2
2014-Nov-12 22:28N 40°38' W 074°12'2 1.8
2014-Nov-12 21:33N 40°39' W 074°10'0 0.0
2014-Nov-12 20:33N 40°39' W 074°10'0 0.0
2014-Nov-12 19:33N 40°39' W 074°10'0 0.0
2014-Nov-12 18:33N 40°39' W 074°10'0 0.1
2014-Nov-12 17:32N 40°38' W 074°10'2 2.3
2014-Nov-12 16:33N 40°37' W 074°12'2 2.2
2014-Nov-12 15:33N 40°39' W 074°10'0 0.0
2014-Nov-12 14:33N 40°39' W 074°10'0 0.0
2014-Nov-12 13:33N 40°39' W 074°10'0 0.0
2014-Nov-12 12:33N 40°39' W 074°10'0 0.0
2014-Nov-12 11:33N 40°39' W 074°10'3 3.0
2014-Nov-12 10:33N 40°36' W 074°12'0 0.3
2014-Nov-12 09:33N 40°36' W 074°12'0 0.0
2014-Nov-12 08:33N 40°36' W 074°12'0 0.0
2014-Nov-12 07:33N 40°36' W 074°12'0 0.0
2014-Nov-12 06:33N 40°36' W 074°12'0 0.0
2014-Nov-12 05:32N 40°36' W 074°12'0 0.3
2014-Nov-12 04:31N 40°36' W 074°12'0 0.3
2014-Nov-12 03:33N 40°36' W 074°12'0 0.0
2014-Nov-12 02:33N 40°36' W 074°12'0 0.3
2014-Nov-12 01:33N 40°36' W 074°12'6 5.8
2014-Nov-12 00:33N 40°31' W 074°15'5 4.7
2014-Nov-11 23:33N 40°30' W 074°09'0 0.1
2014-Nov-11 22:31N 40°30' W 074°09'0 0.0
2014-Nov-11 21:33N 40°30' W 074°09'0 0.0
2014-Nov-11 20:33N 40°30' W 074°09'0 0.1
2014-Nov-11 19:33N 40°30' W 074°09'  

Dump ship's entire track history